createdAt,value
2018-01-30T00:00:31.203Z,1.90
2018-01-30T00:03:03.211Z,2.23
2018-01-30T00:05:52.068Z,2.13
2018-01-30T00:08:27.400Z,2.07
2018-01-30T00:11:25.076Z,2.30
2018-01-30T00:14:01.980Z,2.30
2018-01-30T00:16:37.455Z,2.50
2018-01-30T00:19:09.624Z,2.62
2018-01-30T00:22:08.657Z,2.15
2018-01-30T00:24:41.791Z,2.47
2018-01-30T00:27:13.747Z,2.47
2018-01-30T00:29:48.332Z,2.35
2018-01-30T00:32:19.649Z,2.10
2018-01-30T00:34:52.610Z,2.22
2018-01-30T00:37:25.769Z,2.25
2018-01-30T00:40:22.778Z,1.95
2018-01-30T00:46:04.586Z,2.05
2018-01-30T00:48:48.244Z,2.80
2018-01-30T00:51:44.888Z,2.08
2018-01-30T00:54:17.128Z,2.30
2018-01-30T00:56:51.222Z,2.20
2018-01-30T01:00:03.960Z,2.20
2018-01-30T01:05:23.705Z,2.47
2018-01-30T01:07:56.572Z,2.20
2018-01-30T01:10:29.811Z,2.58
2018-01-30T01:13:02.848Z,2.03
2018-01-30T01:18:22.638Z,2.00
2018-01-30T01:20:57.012Z,3.00
2018-01-30T01:23:28.781Z,2.50
2018-01-30T01:26:25.332Z,2.00
2018-01-30T01:29:14.321Z,2.00
2018-01-30T01:31:47.202Z,2.07
2018-01-30T01:34:19.939Z,6.90
2018-01-30T01:37:17.002Z,5.60
2018-01-30T01:40:06.597Z,5.60
2018-01-30T01:42:39.829Z,5.33
2018-01-30T01:45:13.688Z,3.20
2018-01-30T01:51:19.161Z,5.97
2018-01-30T01:54:15.600Z,4.20
2018-01-30T02:02:42.429Z,4.90
2018-01-30T02:05:14.489Z,2.87
2018-01-30T02:11:33.902Z,5.93
2018-01-30T02:14:10.819Z,6.13
2018-01-30T02:16:45.841Z,5.00
2018-01-30T02:19:17.701Z,9.17
2018-01-30T02:22:14.640Z,11.17
2018-01-30T02:25:03.460Z,6.50
2018-01-30T02:27:47.193Z,3.37
2018-01-30T02:33:28.605Z,2.40
2018-01-30T02:36:01.697Z,4.27
2018-01-30T02:38:57.986Z,6.07
2018-01-30T02:41:30.308Z,3.23
2018-01-30T02:50:44.929Z,2.70
2018-01-30T02:53:18.398Z,3.20
2018-01-30T02:58:35.729Z,2.90
2018-01-30T03:01:08.383Z,3.10
2018-01-30T03:03:40.299Z,3.30
2018-01-30T03:06:25.320Z,3.13
2018-01-30T03:08:58.768Z,2.90
2018-01-30T03:11:31.556Z,2.97
2018-01-30T03:14:16.032Z,2.97
2018-01-30T03:16:48.464Z,3.17
2018-01-30T03:19:20.857Z,3.20
2018-01-30T03:24:53.980Z,2.93
2018-01-30T03:27:26.583Z,2.97
2018-01-30T03:30:01.788Z,3.10
2018-01-30T03:32:34.242Z,3.03
2018-01-30T03:35:06.373Z,2.90
2018-01-30T03:37:37.900Z,3.30
2018-01-30T03:40:09.807Z,3.07
2018-01-30T03:43:18.920Z,3.40
2018-01-30T03:45:51.800Z,3.00
2018-01-30T03:48:26.892Z,3.37
2018-01-30T03:51:10.345Z,2.93
2018-01-30T03:54:08.097Z,3.50
2018-01-30T03:56:39.928Z,3.30
2018-01-30T03:59:12.101Z,3.20
2018-01-30T04:01:43.611Z,2.97
2018-01-30T04:04:27.319Z,3.30
2018-01-30T04:06:59.445Z,3.50
2018-01-30T04:09:32.129Z,3.23
2018-01-30T04:12:04.396Z,4.00
2018-01-30T04:15:00.515Z,4.03
2018-01-30T04:17:45.971Z,3.43
2018-01-30T04:20:31.210Z,3.87
2018-01-30T04:23:04.392Z,3.80
2018-01-30T04:25:40.984Z,3.60
2018-01-30T04:28:14.814Z,4.10
2018-01-30T04:30:48.366Z,3.93
2018-01-30T04:33:20.532Z,3.47
2018-01-30T04:36:19.689Z,4.05
2018-01-30T04:38:51.881Z,4.05
2018-01-30T04:41:36.271Z,4.28
2018-01-30T04:44:08.790Z,3.87
2018-01-30T04:46:42.353Z,4.40
2018-01-30T04:49:15.353Z,4.20
2018-01-30T04:51:47.627Z,4.40
2018-01-30T04:54:22.207Z,4.95
2018-01-30T04:56:54.038Z,4.20
2018-01-30T04:59:53.722Z,4.90
2018-01-30T05:05:47.359Z,4.15
2018-01-30T05:08:21.286Z,4.53
2018-01-30T05:10:54.202Z,4.12
2018-01-30T05:13:38.764Z,4.65
2018-01-30T05:16:14.082Z,4.28
2018-01-30T05:18:50.339Z,4.05
2018-01-30T05:21:22.876Z,4.18
2018-01-30T05:23:55.515Z,4.47
2018-01-30T05:27:05.914Z,4.25
2018-01-30T05:30:04.444Z,4.78
2018-01-30T05:32:49.444Z,4.70
2018-01-30T05:35:33.629Z,5.57
2018-01-30T05:41:13.746Z,5.32
2018-01-30T05:43:46.594Z,5.00
2018-01-30T05:46:31.571Z,5.07
2018-01-30T05:49:17.161Z,4.65
2018-01-30T05:51:53.062Z,4.25
2018-01-30T05:54:26.408Z,4.65
2018-01-30T05:56:58.943Z,4.97
2018-01-30T05:59:31.644Z,5.35
2018-01-30T06:02:17.247Z,5.32
2018-01-30T06:04:49.684Z,4.93
2018-01-30T06:07:34.545Z,5.45
2018-01-30T06:10:08.012Z,6.00
2018-01-30T06:15:27.592Z,5.93
2018-01-30T06:18:16.720Z,6.32
2018-01-30T06:20:49.561Z,6.50
2018-01-30T06:23:23.702Z,6.15
2018-01-30T06:26:12.424Z,10.63
2018-01-30T06:28:45.784Z,7.80
2018-01-30T06:31:29.063Z,5.82
2018-01-30T06:34:16.353Z,7.40
2018-01-30T06:39:35.235Z,8.25
2018-01-30T06:42:34.222Z,8.98
2018-01-30T06:45:08.579Z,6.28
2018-01-30T06:47:41.778Z,5.45
2018-01-30T06:50:15.594Z,6.12
2018-01-30T06:52:48.421Z,5.97
2018-01-30T06:55:36.354Z,7.68
2018-01-30T06:58:16.214Z,6.80
2018-01-30T07:00:51.376Z,6.57
2018-01-30T07:03:27.146Z,6.47
2018-01-30T07:06:01.260Z,6.75
2018-01-30T07:08:36.591Z,7.15
2018-01-30T07:11:10.144Z,7.65
2018-01-30T07:13:43.475Z,7.50
2018-01-30T07:16:17.616Z,7.18
2018-01-30T07:18:51.450Z,7.70
2018-01-30T07:21:26.695Z,7.35
2018-01-30T07:23:59.680Z,6.65
2018-01-30T07:26:33.773Z,7.43
2018-01-30T07:29:07.122Z,6.87
2018-01-30T07:31:39.734Z,9.18
2018-01-30T07:34:15.335Z,6.93
2018-01-30T07:36:48.855Z,8.45
2018-01-30T07:42:32.884Z,6.90
2018-01-30T07:45:06.178Z,7.35
2018-01-30T07:47:37.592Z,7.00
2018-01-30T07:50:46.598Z,6.53
2018-01-30T07:53:45.054Z,6.50
2018-01-30T07:56:18.539Z,8.18
2018-01-30T07:58:53.881Z,6.87
2018-01-30T08:01:26.476Z,7.00
2018-01-30T08:04:00.420Z,7.23
2018-01-30T08:06:34.641Z,6.35
2018-01-30T08:09:08.547Z,7.70
2018-01-30T08:11:40.827Z,6.82
2018-01-30T08:14:15.626Z,6.03
2018-01-30T08:16:47.964Z,5.97
2018-01-30T08:19:21.684Z,5.62
2018-01-30T08:22:07.230Z,5.72
2018-01-30T08:24:39.502Z,6.00
2018-01-30T08:27:13.178Z,5.50
2018-01-30T08:29:48.307Z,6.20
2018-01-30T08:32:21.586Z,6.20
2018-01-30T08:35:19.887Z,7.68
2018-01-30T08:37:59.056Z,8.13
2018-01-30T08:40:34.994Z,6.47
2018-01-30T08:43:10.164Z,5.80
2018-01-30T08:45:43.603Z,7.68
2018-01-30T08:48:17.800Z,6.68
2018-01-30T08:51:02.756Z,7.47
2018-01-30T08:53:37.770Z,5.65
2018-01-30T08:56:10.457Z,5.95
2018-01-30T08:58:44.443Z,7.95
2018-01-30T09:01:17.975Z,7.20
2018-01-30T09:03:51.826Z,8.38
2018-01-30T09:06:26.912Z,6.60
2018-01-30T09:09:00.327Z,6.45
2018-01-30T09:11:34.449Z,8.38
2018-01-30T09:14:08.419Z,7.10
2018-01-30T09:16:41.518Z,7.93
2018-01-30T09:22:09.735Z,8.60
2018-01-30T09:24:43.356Z,8.50
2018-01-30T09:27:16.744Z,6.93
2018-01-30T09:30:05.258Z,7.57
2018-01-30T09:33:00.979Z,7.62
2018-01-30T09:35:35.457Z,6.60
2018-01-30T09:38:09.701Z,5.20
2018-01-30T09:40:44.021Z,5.18
2018-01-30T09:43:17.712Z,5.13
2018-01-30T09:45:52.339Z,5.00
2018-01-30T09:48:26.344Z,4.90
2018-01-30T09:50:58.320Z,4.83
2018-01-30T09:53:32.397Z,4.90
2018-01-30T09:56:04.298Z,4.60
2018-01-30T09:58:39.556Z,5.68
2018-01-30T10:01:12.632Z,5.17
2018-01-30T10:03:49.665Z,4.57
2018-01-30T10:06:31.105Z,4.83
2018-01-30T10:09:06.605Z,4.50
2018-01-30T10:11:40.565Z,4.53
2018-01-30T10:14:54.018Z,6.12
2018-01-30T10:17:50.621Z,4.57
2018-01-30T10:20:28.644Z,3.93
2018-01-30T10:23:06.233Z,5.23
2018-01-30T10:25:39.200Z,4.97
2018-01-30T10:28:14.602Z,4.20
2018-01-30T10:30:47.205Z,4.83
2018-01-30T10:33:33.955Z,4.23
2018-01-30T10:36:06.022Z,3.50
2018-01-30T10:38:50.552Z,3.80
2018-01-30T10:50:32.699Z,2.93
2018-01-30T10:53:05.477Z,3.20
2018-01-30T10:55:46.650Z,3.03
2018-01-30T10:58:21.502Z,3.23
2018-01-30T11:00:55.935Z,2.93
2018-01-30T11:06:16.253Z,5.93
2018-01-30T11:08:49.410Z,3.23
2018-01-30T11:11:43.432Z,3.37
2018-01-30T11:17:17.263Z,2.97
2018-01-30T11:20:03.421Z,2.70
2018-01-30T11:23:00.351Z,2.60
2018-01-30T11:28:22.522Z,3.43
2018-01-30T11:31:00.062Z,2.47
2018-01-30T11:33:38.706Z,3.40
2018-01-30T11:36:36.645Z,2.80
2018-01-30T11:39:34.600Z,3.40
2018-01-30T11:44:52.941Z,2.97
2018-01-30T11:47:27.178Z,3.37
2018-01-30T11:50:02.796Z,4.00
2018-01-30T11:52:59.536Z,3.40
2018-01-30T11:55:34.316Z,2.87
2018-01-30T11:58:08.569Z,2.90
2018-01-30T12:00:44.097Z,2.97
2018-01-30T12:03:32.230Z,3.17
2018-01-30T12:06:08.739Z,2.57
2018-01-30T12:08:41.645Z,2.60
2018-01-30T12:11:17.377Z,2.93
2018-01-30T12:13:50.722Z,2.97
2018-01-30T12:16:24.429Z,2.90
2018-01-30T12:18:58.233Z,2.30
2018-01-30T12:21:32.854Z,2.80
2018-01-30T12:24:06.037Z,1.73
2018-01-30T12:26:39.658Z,2.00
2018-01-30T12:29:12.805Z,2.67
2018-01-30T12:31:47.224Z,2.10
2018-01-30T12:34:20.788Z,2.57
2018-01-30T12:36:52.193Z,2.10
2018-01-30T12:39:28.449Z,2.43
2018-01-30T12:42:02.854Z,1.73
2018-01-30T12:44:36.029Z,1.90
2018-01-30T12:47:09.498Z,1.77
2018-01-30T12:49:47.489Z,1.73
2018-01-30T12:52:35.120Z,1.70
2018-01-30T12:55:11.876Z,1.77
2018-01-30T12:57:45.930Z,1.60
2018-01-30T13:00:25.216Z,1.80
2018-01-30T13:03:09.158Z,1.70
2018-01-30T13:05:44.578Z,1.93
2018-01-30T13:08:16.759Z,2.27
2018-01-30T13:10:55.925Z,1.70
2018-01-30T13:13:30.151Z,2.10
2018-01-30T13:16:04.405Z,1.50
2018-01-30T13:18:38.615Z,2.83
2018-01-30T13:21:15.500Z,1.93
2018-01-30T13:23:49.288Z,1.80
2018-01-30T13:26:23.652Z,2.40
2018-01-30T13:29:09.855Z,3.43
2018-01-30T13:31:46.514Z,1.80
2018-01-30T13:34:21.399Z,1.70
2018-01-30T13:36:55.135Z,2.17
2018-01-30T13:39:31.242Z,2.40
2018-01-30T13:42:02.936Z,1.53
2018-01-30T13:44:36.322Z,1.80
